createdAt,value
2019-03-26T00:00:20.034Z,5.60
2019-03-26T00:02:48.811Z,5.70
2019-03-26T00:05:17.316Z,5.70
2019-03-26T00:07:47.539Z,5.80
2019-03-26T00:10:16.159Z,5.80
2019-03-26T00:12:44.407Z,5.90
2019-03-26T00:15:12.647Z,6.00
2019-03-26T00:17:40.914Z,6.00
2019-03-26T00:20:09.240Z,6.10
2019-03-26T00:22:37.925Z,6.10
2019-03-26T00:25:06.674Z,6.10
2019-03-26T00:27:35.179Z,6.10
2019-03-26T00:30:03.435Z,6.10
2019-03-26T00:32:31.699Z,6.10
2019-03-26T00:34:59.930Z,6.20
2019-03-26T00:37:28.175Z,6.20
2019-03-26T00:39:57.503Z,6.20
2019-03-26T00:42:25.730Z,6.30
2019-03-26T00:44:54.006Z,6.30
2019-03-26T00:47:22.397Z,6.30
2019-03-26T00:49:50.633Z,6.30
2019-03-26T00:52:18.871Z,6.40
2019-03-26T00:54:47.223Z,6.30
2019-03-26T00:57:15.451Z,6.30
2019-03-26T00:59:43.691Z,6.20
2019-03-26T01:02:12.898Z,6.20
2019-03-26T01:04:41.479Z,6.20
2019-03-26T01:07:09.731Z,6.30
2019-03-26T01:09:38.365Z,6.30
2019-03-26T01:12:06.597Z,6.30
2019-03-26T01:14:34.885Z,6.30
2019-03-26T01:17:03.167Z,6.20
2019-03-26T01:19:33.548Z,6.20
2019-03-26T01:22:01.792Z,6.30
2019-03-26T01:24:30.593Z,6.30
2019-03-26T01:26:58.836Z,6.30
2019-03-26T01:29:27.105Z,6.30
2019-03-26T01:31:55.351Z,6.30
2019-03-26T01:34:23.586Z,6.30
2019-03-26T01:36:51.815Z,6.30
2019-03-26T01:39:20.312Z,6.40
2019-03-26T01:41:48.550Z,6.40
2019-03-26T01:44:16.788Z,6.40
2019-03-26T01:46:45.071Z,6.40
2019-03-26T01:49:14.714Z,6.50
2019-03-26T01:51:42.951Z,6.50
2019-03-26T01:54:11.240Z,6.50
2019-03-26T01:56:39.789Z,6.50
2019-03-26T01:59:08.051Z,6.50
2019-03-26T02:01:36.574Z,6.50
2019-03-26T02:04:04.816Z,6.40
2019-03-26T02:06:33.052Z,6.30
2019-03-26T02:09:01.307Z,6.30
2019-03-26T02:11:29.543Z,6.30
2019-03-26T02:13:57.775Z,6.20
2019-03-26T02:16:26.031Z,6.10
2019-03-26T02:18:54.275Z,6.10
2019-03-26T02:21:22.509Z,6.10
2019-03-26T02:23:50.787Z,6.20
2019-03-26T02:26:19.100Z,6.20
2019-03-26T02:28:47.367Z,6.20
2019-03-26T02:31:15.623Z,6.30
2019-03-26T02:33:43.888Z,6.20
2019-03-26T02:36:12.110Z,6.30
2019-03-26T02:38:41.166Z,6.30
2019-03-26T02:41:09.416Z,6.30
2019-03-26T02:43:37.676Z,6.30
2019-03-26T02:46:05.948Z,6.30
2019-03-26T02:48:34.951Z,6.20
2019-03-26T02:51:03.874Z,6.30
2019-03-26T02:53:32.123Z,6.40
2019-03-26T02:56:00.379Z,6.40
2019-03-26T02:58:31.562Z,6.40
2019-03-26T03:01:00.326Z,6.40
2019-03-26T03:03:28.556Z,6.40
2019-03-26T03:05:56.791Z,6.50
2019-03-26T03:08:25.099Z,6.60
2019-03-26T03:10:53.351Z,6.60
2019-03-26T03:13:21.899Z,6.60
2019-03-26T03:15:50.185Z,6.60
2019-03-26T03:18:18.423Z,6.60
2019-03-26T03:20:46.664Z,6.60
2019-03-26T03:23:15.216Z,6.70
2019-03-26T03:25:43.498Z,6.60
2019-03-26T03:28:11.795Z,6.50
2019-03-26T03:30:40.154Z,6.50
2019-03-26T03:33:08.396Z,6.50
2019-03-26T03:35:51.259Z,6.50
2019-03-26T03:38:07.084Z,6.50
2019-03-26T03:40:35.348Z,6.40
2019-03-26T03:43:03.676Z,6.30
2019-03-26T03:45:32.260Z,6.20
2019-03-26T03:48:00.505Z,6.20
2019-03-26T03:50:29.624Z,6.20
2019-03-26T03:52:59.591Z,6.10
2019-03-26T03:55:27.895Z,6.10
2019-03-26T03:57:58.631Z,6.20
2019-03-26T04:00:30.230Z,6.30
2019-03-26T04:02:58.464Z,6.30
2019-03-26T04:05:26.701Z,6.40
2019-03-26T04:07:54.971Z,6.50
2019-03-26T04:10:23.211Z,6.50
2019-03-26T04:12:51.765Z,6.60
2019-03-26T04:15:20.019Z,6.60
2019-03-26T04:17:48.254Z,6.60
2019-03-26T04:20:16.488Z,6.60
2019-03-26T04:22:45.090Z,6.70
2019-03-26T04:25:13.331Z,6.70
2019-03-26T04:27:41.568Z,6.70
2019-03-26T04:30:11.876Z,6.60
2019-03-26T04:32:40.441Z,6.70
2019-03-26T04:35:08.677Z,6.70
2019-03-26T04:37:37.326Z,6.70
2019-03-26T04:40:06.031Z,6.80
2019-03-26T04:42:34.350Z,6.70
2019-03-26T04:45:02.627Z,6.80
2019-03-26T04:47:30.859Z,6.80
2019-03-26T04:49:59.100Z,6.90
2019-03-26T04:52:28.003Z,6.80
2019-03-26T04:54:56.247Z,6.80
2019-03-26T04:57:24.488Z,6.90
2019-03-26T04:59:52.749Z,6.90
2019-03-26T05:02:20.987Z,6.90
2019-03-26T05:04:49.227Z,6.90
2019-03-26T05:07:17.836Z,6.90
2019-03-26T05:09:46.075Z,6.90
2019-03-26T05:12:14.311Z,6.80
2019-03-26T05:14:42.647Z,6.80
2019-03-26T05:17:10.882Z,6.80
2019-03-26T05:19:39.118Z,6.90
2019-03-26T05:22:07.697Z,6.90
2019-03-26T05:24:35.943Z,6.90
2019-03-26T05:27:04.185Z,7.00
2019-03-26T05:29:32.567Z,7.10
2019-03-26T05:32:00.812Z,7.10
2019-03-26T05:34:29.051Z,7.00
2019-03-26T05:36:57.319Z,7.00
2019-03-26T05:39:25.560Z,7.00
2019-03-26T05:41:53.800Z,6.90
2019-03-26T05:44:22.047Z,6.80
2019-03-26T05:46:50.302Z,6.80
2019-03-26T05:49:18.535Z,6.80
2019-03-26T05:51:47.151Z,6.80
2019-03-26T05:54:17.304Z,6.70
2019-03-26T05:56:45.547Z,6.60
2019-03-26T05:59:13.880Z,6.60
2019-03-26T06:01:42.122Z,6.50
2019-03-26T06:04:10.362Z,6.50
2019-03-26T06:06:38.642Z,6.50
2019-03-26T06:09:06.890Z,6.60
2019-03-26T06:11:35.134Z,6.60
2019-03-26T06:14:03.387Z,6.60
2019-03-26T06:16:38.375Z,6.60
2019-03-26T06:19:01.593Z,6.70
2019-03-26T06:21:29.855Z,6.70
2019-03-26T06:23:58.095Z,6.70
2019-03-26T06:26:26.343Z,6.80
2019-03-26T06:28:54.848Z,6.80
2019-03-26T06:31:23.439Z,6.90
2019-03-26T06:33:51.683Z,6.90
2019-03-26T06:36:20.295Z,6.90
2019-03-26T06:38:48.534Z,6.90
2019-03-26T06:41:16.780Z,7.00
2019-03-26T06:43:45.120Z,7.10
2019-03-26T06:46:13.346Z,7.10
2019-03-26T06:48:41.650Z,7.20
2019-03-26T06:51:09.920Z,7.20
2019-03-26T06:53:38.161Z,7.40
2019-03-26T06:56:06.730Z,7.70
2019-03-26T06:58:34.992Z,7.70
2019-03-26T07:01:03.230Z,7.70
2019-03-26T07:03:31.475Z,7.70
2019-03-26T07:06:00.016Z,7.80
2019-03-26T07:08:28.257Z,7.70
2019-03-26T07:10:56.512Z,7.80
2019-03-26T07:13:24.782Z,7.80
2019-03-26T07:15:53.014Z,7.80
2019-03-26T07:18:21.252Z,8.00
2019-03-26T07:20:49.804Z,8.00
2019-03-26T07:23:18.055Z,8.00
2019-03-26T07:25:46.307Z,8.20
2019-03-26T07:28:14.895Z,8.30
2019-03-26T07:30:44.178Z,8.30
2019-03-26T07:33:12.432Z,8.40
2019-03-26T07:35:40.803Z,8.50
2019-03-26T07:38:09.043Z,8.60
2019-03-26T07:40:37.288Z,8.70
2019-03-26T07:43:05.549Z,8.70
2019-03-26T07:45:33.787Z,8.60
2019-03-26T07:48:02.038Z,8.60
2019-03-26T07:50:30.307Z,8.60
2019-03-26T07:52:58.548Z,8.30
2019-03-26T07:55:26.783Z,8.30
2019-03-26T07:57:56.095Z,8.40
2019-03-26T08:00:37.254Z,8.50
2019-03-26T08:03:05.947Z,8.70
2019-03-26T08:05:34.193Z,8.90
2019-03-26T08:08:02.432Z,9.20
2019-03-26T08:10:31.371Z,9.40
2019-03-26T08:12:59.639Z,9.60
2019-03-26T08:15:27.970Z,9.80
2019-03-26T08:17:56.370Z,9.90
2019-03-26T08:20:25.013Z,9.80
2019-03-26T08:22:53.255Z,9.90
2019-03-26T08:25:21.621Z,10.10
2019-03-26T08:27:49.864Z,10.00
2019-03-26T08:30:18.398Z,9.90
2019-03-26T08:32:47.019Z,9.70
2019-03-26T08:35:15.305Z,9.50
2019-03-26T08:37:43.556Z,9.60
2019-03-26T08:40:13.079Z,9.70
2019-03-26T08:42:42.762Z,9.70
2019-03-26T08:45:11.028Z,9.70
2019-03-26T08:47:39.718Z,9.60
2019-03-26T08:50:08.200Z,9.60
2019-03-26T08:52:36.452Z,9.90
2019-03-26T08:55:09.971Z,10.10
2019-03-26T08:57:38.226Z,9.90
2019-03-26T09:00:07.251Z,9.90
2019-03-26T09:02:35.515Z,9.90
2019-03-26T09:05:05.604Z,10.10
2019-03-26T09:07:34.411Z,10.00
2019-03-26T09:10:02.724Z,9.90
2019-03-26T09:12:30.981Z,9.70
2019-03-26T09:14:59.206Z,9.00
2019-03-26T09:17:29.317Z,8.60
2019-03-26T09:19:57.555Z,8.30
2019-03-26T09:22:25.806Z,8.50
2019-03-26T09:24:54.332Z,8.80
2019-03-26T09:27:22.619Z,8.80
2019-03-26T09:29:50.835Z,8.80
2019-03-26T09:32:19.467Z,9.10
2019-03-26T09:34:47.707Z,9.50
2019-03-26T09:37:15.966Z,9.60
2019-03-26T09:39:45.991Z,9.90
2019-03-26T09:42:14.247Z,9.80
2019-03-26T09:44:42.504Z,10.00
2019-03-26T09:47:16.315Z,10.10
2019-03-26T09:49:42.452Z,10.30
2019-03-26T09:52:10.696Z,10.60
2019-03-26T09:54:38.978Z,10.70
2019-03-26T09:59:58.023Z,10.80
2019-03-26T10:02:26.987Z,10.60
2019-03-26T10:04:55.242Z,10.80
2019-03-26T10:07:23.504Z,10.60
2019-03-26T10:09:51.757Z,10.40
2019-03-26T10:12:19.987Z,10.30
2019-03-26T10:14:48.306Z,10.40
2019-03-26T10:17:16.593Z,10.30
2019-03-26T10:19:44.826Z,10.20
2019-03-26T10:22:13.466Z,10.20
2019-03-26T10:24:41.717Z,10.00
2019-03-26T10:27:09.961Z,10.00
2019-03-26T10:29:38.272Z,10.10
2019-03-26T10:32:06.511Z,9.90
2019-03-26T10:34:36.545Z,10.00
2019-03-26T10:37:04.975Z,10.10
2019-03-26T10:39:33.222Z,10.10
2019-03-26T10:42:01.507Z,10.10
2019-03-26T10:44:29.886Z,10.10
2019-03-26T10:46:58.135Z,10.00
2019-03-26T10:49:26.393Z,10.00
2019-03-26T10:51:54.662Z,9.80
2019-03-26T10:54:22.916Z,9.80
2019-03-26T10:56:51.232Z,9.80
2019-03-26T10:59:19.507Z,9.80
2019-03-26T11:01:47.751Z,9.80
2019-03-26T11:04:16.239Z,9.70
2019-03-26T11:06:44.607Z,9.60
2019-03-26T11:09:21.298Z,9.60
2019-03-26T11:11:42.808Z,9.70
2019-03-26T11:14:11.259Z,9.90
2019-03-26T11:16:39.505Z,10.60
2019-03-26T11:19:08.102Z,11.30
2019-03-26T11:21:36.358Z,11.70
2019-03-26T11:24:04.598Z,11.90
2019-03-26T11:26:32.844Z,12.00
2019-03-26T11:29:01.130Z,11.80
2019-03-26T11:31:30.189Z,12.00
2019-03-26T11:33:58.599Z,11.90
2019-03-26T11:36:27.184Z,12.00
2019-03-26T11:38:55.438Z,12.30
2019-03-26T11:41:24.027Z,12.20
2019-03-26T11:43:52.338Z,12.00
2019-03-26T11:46:20.612Z,11.90
2019-03-26T11:48:48.896Z,11.60
2019-03-26T11:51:17.359Z,11.40
2019-03-26T11:53:45.604Z,11.20
2019-03-26T11:56:13.863Z,11.00
2019-03-26T11:58:42.174Z,10.70
2019-03-26T12:01:10.460Z,10.60
2019-03-26T12:03:38.707Z,10.80
2019-03-26T12:06:08.095Z,11.30
2019-03-26T12:08:36.323Z,11.60
2019-03-26T12:11:04.583Z,11.40
2019-03-26T12:13:32.920Z,11.20
2019-03-26T12:16:01.166Z,11.00
2019-03-26T12:18:29.426Z,10.80
2019-03-26T12:20:58.105Z,10.80
2019-03-26T12:23:26.541Z,10.50
2019-03-26T12:25:54.777Z,10.20
2019-03-26T12:28:23.043Z,9.90
2019-03-26T12:30:51.285Z,9.70
2019-03-26T12:33:19.523Z,9.70
2019-03-26T12:35:47.867Z,10.00
2019-03-26T12:38:17.550Z,10.30
2019-03-26T12:40:45.859Z,10.50
2019-03-26T12:43:14.266Z,10.40
2019-03-26T12:45:42.868Z,10.30
2019-03-26T12:48:11.148Z,10.30
2019-03-26T12:50:39.407Z,10.30
2019-03-26T12:53:07.651Z,10.60
2019-03-26T12:55:35.899Z,10.70
2019-03-26T12:58:04.699Z,10.70
2019-03-26T13:00:32.935Z,10.80
2019-03-26T13:03:01.451Z,10.70
2019-03-26T13:05:30.020Z,10.60
2019-03-26T13:07:58.655Z,10.50
2019-03-26T13:10:26.903Z,10.80
2019-03-26T13:12:55.780Z,10.80
2019-03-26T13:15:24.007Z,10.90
2019-03-26T13:17:52.251Z,10.90
2019-03-26T13:20:20.511Z,11.00
2019-03-26T13:22:48.801Z,10.90
2019-03-26T13:25:17.035Z,10.60
2019-03-26T13:27:48.635Z,10.40
2019-03-26T13:30:16.875Z,10.60
2019-03-26T13:32:46.759Z,10.90
2019-03-26T13:35:15.021Z,11.10
2019-03-26T13:37:43.315Z,11.10
2019-03-26T13:40:11.580Z,11.10
2019-03-26T13:42:39.850Z,11.00
2019-03-26T13:45:08.159Z,11.10
2019-03-26T13:47:40.684Z,11.40
2019-03-26T13:50:08.995Z,11.70
2019-03-26T13:52:37.319Z,11.60
2019-03-26T13:55:07.231Z,11.50
2019-03-26T13:57:38.186Z,11.10
2019-03-26T14:00:09.371Z,10.70
2019-03-26T14:02:37.617Z,10.70
2019-03-26T14:05:25.405Z,10.70
2019-03-26T14:07:53.638Z,10.80
2019-03-26T14:10:22.706Z,10.80
2019-03-26T14:12:51.471Z,10.70
2019-03-26T14:15:19.715Z,10.80
2019-03-26T14:17:47.974Z,10.80
2019-03-26T14:20:16.334Z,10.60
2019-03-26T14:22:50.531Z,10.40
2019-03-26T14:25:18.828Z,10.50
2019-03-26T14:27:47.491Z,10.60
2019-03-26T14:30:15.789Z,10.70
2019-03-26T14:32:45.671Z,10.80
2019-03-26T14:35:13.947Z,11.00
2019-03-26T14:37:51.273Z,11.20
2019-03-26T14:40:12.166Z,11.00
2019-03-26T14:42:40.476Z,10.70
2019-03-26T14:45:08.759Z,10.60
2019-03-26T14:47:37.003Z,10.70
2019-03-26T14:50:06.115Z,10.60
2019-03-26T14:52:34.364Z,10.30
2019-03-26T14:55:02.610Z,10.20
2019-03-26T14:57:30.874Z,10.20
2019-03-26T14:59:59.115Z,10.30
2019-03-26T15:02:27.352Z,10.40
2019-03-26T15:04:56.017Z,10.60
2019-03-26T15:07:24.259Z,10.80
2019-03-26T15:09:52.498Z,11.00
2019-03-26T15:12:20.801Z,11.10
2019-03-26T15:14:49.031Z,11.40
2019-03-26T15:17:17.346Z,11.60
2019-03-26T15:19:48.569Z,11.60
2019-03-26T15:22:19.866Z,11.30
2019-03-26T15:24:48.106Z,11.10
2019-03-26T15:27:16.418Z,10.90
2019-03-26T15:29:45.012Z,10.90
2019-03-26T15:32:13.254Z,10.90
2019-03-26T15:34:41.571Z,10.80
2019-03-26T15:37:10.169Z,10.60
2019-03-26T15:39:38.410Z,10.60
2019-03-26T15:42:06.750Z,10.50
2019-03-26T15:44:36.838Z,10.50
2019-03-26T15:47:05.077Z,10.60
2019-03-26T15:49:33.347Z,10.80
2019-03-26T15:52:01.588Z,10.90
2019-03-26T15:54:31.568Z,10.60
2019-03-26T15:56:59.887Z,10.50
2019-03-26T15:59:28.143Z,10.30
2019-03-26T16:01:56.384Z,10.20
2019-03-26T16:04:24.652Z,10.10
2019-03-26T16:06:56.779Z,10.00
2019-03-26T16:09:33.815Z,10.00
2019-03-26T16:12:06.399Z,9.80
2019-03-26T16:14:43.573Z,9.60
2019-03-26T16:17:14.885Z,9.30
2019-03-26T16:19:44.765Z,9.10
2019-03-26T16:22:18.901Z,9.00
2019-03-26T16:24:48.788Z,8.90
2019-03-26T16:27:19.386Z,8.90
2019-03-26T16:29:47.738Z,8.80
2019-03-26T16:32:23.647Z,8.80
2019-03-26T16:34:51.890Z,8.80
2019-03-26T16:37:24.797Z,8.70
2019-03-26T16:40:06.421Z,8.60
2019-03-26T16:42:43.622Z,8.60
2019-03-26T16:45:14.545Z,8.60
2019-03-26T16:47:42.804Z,8.70
2019-03-26T16:50:17.242Z,8.70
2019-03-26T16:52:54.571Z,8.70
2019-03-26T16:55:41.622Z,8.70
2019-03-26T16:58:15.530Z,8.70
2019-03-26T17:00:47.083Z,8.60
2019-03-26T17:03:31.349Z,8.60
2019-03-26T17:05:57.796Z,8.60
2019-03-26T17:08:26.166Z,8.60
2019-03-26T17:11:00.191Z,8.60
2019-03-26T17:13:28.738Z,8.60
2019-03-26T17:16:01.666Z,8.60
2019-03-26T17:18:29.989Z,8.60
2019-03-26T17:20:58.562Z,8.60
2019-03-26T17:23:26.795Z,8.60
2019-03-26T17:25:55.043Z,8.60
2019-03-26T17:28:23.311Z,8.40
2019-03-26T17:30:51.560Z,8.30
2019-03-26T17:33:19.816Z,8.30
2019-03-26T17:35:48.257Z,8.30
2019-03-26T17:38:16.505Z,8.30
2019-03-26T17:40:44.732Z,8.30
2019-03-26T17:43:13.014Z,8.20
2019-03-26T17:45:43.191Z,8.20
2019-03-26T17:48:11.427Z,8.20
2019-03-26T17:50:40.060Z,8.20
2019-03-26T17:53:08.302Z,8.20
2019-03-26T17:55:39.249Z,8.10
2019-03-26T17:58:07.831Z,8.10
2019-03-26T18:00:43.176Z,8.10
2019-03-26T18:03:25.178Z,8.00
2019-03-26T18:05:41.454Z,8.10
2019-03-26T18:08:09.708Z,8.10
2019-03-26T18:10:37.945Z,8.10
2019-03-26T18:13:06.913Z,8.10
2019-03-26T18:15:35.159Z,8.10
2019-03-26T18:18:03.403Z,8.00
2019-03-26T18:20:33.162Z,8.00
2019-03-26T18:23:01.472Z,8.00
2019-03-26T18:25:31.334Z,8.00
2019-03-26T18:27:59.604Z,8.00
2019-03-26T18:30:36.875Z,8.10
2019-03-26T18:33:05.547Z,8.10
2019-03-26T18:35:33.872Z,8.10
2019-03-26T18:38:02.110Z,8.10
2019-03-26T18:40:39.920Z,8.20
2019-03-26T18:43:06.840Z,8.20
2019-03-26T18:45:35.093Z,8.20
2019-03-26T18:48:03.363Z,8.20
2019-03-26T18:50:31.594Z,8.10
2019-03-26T18:52:59.843Z,8.10
2019-03-26T18:55:28.801Z,8.10
2019-03-26T18:57:57.048Z,8.20
2019-03-26T19:00:35.562Z,8.30
2019-03-26T19:03:03.947Z,8.30
2019-03-26T19:05:32.186Z,8.30
2019-03-26T19:08:00.469Z,8.40
2019-03-26T19:10:35.725Z,8.30
2019-03-26T19:13:18.001Z,8.30
2019-03-26T19:15:35.913Z,8.30
2019-03-26T19:18:04.250Z,8.30
2019-03-26T19:20:38.371Z,8.30
2019-03-26T19:23:06.683Z,8.30
2019-03-26T19:25:34.965Z,8.30
2019-03-26T19:28:03.609Z,8.30
2019-03-26T19:30:32.223Z,8.30
2019-03-26T19:33:02.102Z,8.40
2019-03-26T19:35:30.339Z,8.40
2019-03-26T19:37:58.627Z,8.40
2019-03-26T19:40:26.907Z,8.30
2019-03-26T19:42:55.138Z,8.40
2019-03-26T19:45:23.388Z,8.30
2019-03-26T19:47:51.653Z,8.30
2019-03-26T19:50:19.904Z,8.40
2019-03-26T19:52:48.571Z,8.40
2019-03-26T19:55:16.816Z,8.40
2019-03-26T19:57:45.055Z,8.40
2019-03-26T20:00:15.593Z,8.30
2019-03-26T20:02:43.911Z,8.40
2019-03-26T20:05:12.168Z,8.40
2019-03-26T20:07:44.216Z,8.40
2019-03-26T20:10:12.798Z,8.40
2019-03-26T20:12:41.037Z,8.40
2019-03-26T20:15:13.119Z,8.40
2019-03-26T20:17:41.109Z,8.40
2019-03-26T20:20:09.423Z,8.40
2019-03-26T20:22:38.378Z,8.30
2019-03-26T20:25:06.690Z,8.30
2019-03-26T20:27:34.937Z,8.30
2019-03-26T20:30:03.988Z,8.30
2019-03-26T20:32:44.615Z,8.40
2019-03-26T20:35:23.508Z,8.30
2019-03-26T20:38:07.306Z,8.30
2019-03-26T20:40:38.649Z,8.20
2019-03-26T20:43:06.887Z,8.20
2019-03-26T20:45:35.406Z,8.20
2019-03-26T20:48:03.703Z,8.30
2019-03-26T20:50:31.951Z,8.30
2019-03-26T20:53:00.557Z,8.30
2019-03-26T20:55:33.229Z,8.30
2019-03-26T20:58:01.794Z,8.30
2019-03-26T21:00:38.262Z,8.30
2019-03-26T21:03:06.780Z,8.40
2019-03-26T21:05:35.109Z,8.40
2019-03-26T21:08:06.474Z,8.50
2019-03-26T21:10:34.816Z,8.40
2019-03-26T21:13:03.072Z,8.40
2019-03-26T21:15:31.337Z,8.30
2019-03-26T21:17:59.592Z,8.40
2019-03-26T21:20:27.835Z,8.40
2019-03-26T21:22:56.082Z,8.40
2019-03-26T21:25:24.735Z,8.40
2019-03-26T21:27:53.302Z,8.40
2019-03-26T21:30:21.574Z,8.40
2019-03-26T21:32:49.827Z,8.50
2019-03-26T21:35:18.066Z,8.50
2019-03-26T21:37:46.346Z,8.40
2019-03-26T21:40:14.807Z,8.40
2019-03-26T21:42:43.056Z,8.40
2019-03-26T21:45:22.166Z,8.40
2019-03-26T21:47:52.099Z,8.30
2019-03-26T21:50:21.988Z,8.30
2019-03-26T21:52:50.258Z,8.30
2019-03-26T21:55:20.708Z,8.30
2019-03-26T21:57:56.212Z,8.30
2019-03-26T22:00:26.186Z,8.20
2019-03-26T22:02:54.869Z,8.20
2019-03-26T22:05:23.250Z,8.20
2019-03-26T22:07:51.599Z,8.20
2019-03-26T22:10:20.245Z,8.10
2019-03-26T22:12:48.478Z,8.10
2019-03-26T22:15:16.771Z,8.10
2019-03-26T22:17:46.651Z,8.10
2019-03-26T22:20:14.893Z,8.10
2019-03-26T22:22:43.162Z,8.10
2019-03-26T22:25:12.510Z,8.10
2019-03-26T22:27:40.739Z,8.20
2019-03-26T22:30:09.753Z,8.20
2019-03-26T22:32:37.992Z,8.30
2019-03-26T22:35:08.976Z,8.20
2019-03-26T22:37:37.247Z,8.30
2019-03-26T22:40:07.119Z,8.20
2019-03-26T22:42:35.386Z,8.20
2019-03-26T22:45:06.584Z,8.20
2019-03-26T22:47:43.898Z,8.20
2019-03-26T22:50:13.103Z,8.20
2019-03-26T22:52:41.342Z,8.20
2019-03-26T22:55:09.798Z,8.20
2019-03-26T22:57:38.747Z,8.30
2019-03-26T23:00:10.567Z,8.30
2019-03-26T23:02:38.879Z,8.20
2019-03-26T23:05:08.287Z,8.20
2019-03-26T23:07:36.598Z,8.20
2019-03-26T23:10:05.603Z,8.20
2019-03-26T23:12:33.863Z,8.20
2019-03-26T23:15:02.111Z,8.20
2019-03-26T23:17:30.697Z,8.20
2019-03-26T23:19:59.327Z,8.30
2019-03-26T23:22:27.585Z,8.20
2019-03-26T23:24:55.850Z,8.10
2019-03-26T23:27:24.620Z,8.10
2019-03-26T23:29:52.858Z,8.20
2019-03-26T23:32:21.116Z,8.30
2019-03-26T23:34:49.375Z,8.30
2019-03-26T23:37:23.560Z,8.30
2019-03-26T23:39:51.802Z,8.20
2019-03-26T23:42:20.131Z,8.20
2019-03-26T23:44:57.777Z,8.20
2019-03-26T23:47:18.346Z,8.20
2019-03-26T23:49:46.618Z,8.20
2019-03-26T23:52:14.853Z,8.20
2019-03-26T23:54:43.089Z,8.30
2019-03-26T23:57:11.336Z,8.20
2019-03-26T23:59:39.570Z,8.30
